»·PEaware :: N6515D KSNA-L71

N6515D :: KSNA-L71

FLIGHT INFORMATION

Flight Status: Arrived
Operator: Privately registered:
United States
More flights under this callsign
Pilot: Charles S. (11412)
Aircraft: Unknown
(DA62)
More flights by this aircraft type
Origin: KSNA John Wayne-Orange Co
United States
Destination: L71 California City Mun
United States
More flights between these airports :: More routes between these airports
Route: +SLI V8 POXKU V363 BAYJI V186 DARTS V459 BERRI V201 PMD
File this flight plan on PilotEdge
Remarks:
Altitude:
(Current/Filed)
12,000ft
Speed:
(Current/Filed)
190kts
Departed: 29-Apr-18 09:53 AM
Arrived: 29-Apr-18 10:53 AM
Distance/Time
Traveled:
89nm/1:00
Distance/Time
To Go:
Arrived

Flight Plot

Page will automatically refresh every two minutes.

Flight plan parsing failed; only flown route is shown


Map Options




Map Legend


Flown Route
Filed Route
Departure Airport
Arrival Airport
Navaid (VOR, NDB)
Fix

Horizontal Profiles

Position Reports

Time Latitude Longitude Heading Altitude Ground
Speed
29-Apr-18 09:36 33.671519 -117.867198 26 60ft 0kts
29-Apr-18 09:37 33.671519 -117.867198 26 60ft 0kts
29-Apr-18 09:38 33.671519 -117.867198 26 60ft 0kts
29-Apr-18 09:39 33.671519 -117.867198 26 60ft 0kts
29-Apr-18 09:40 33.671519 -117.867198 26 60ft 0kts
29-Apr-18 09:41 33.671519 -117.867198 26 60ft 0kts
29-Apr-18 09:42 33.671519 -117.867198 26 60ft 0kts
29-Apr-18 09:43 33.671519 -117.867198 26 60ft 0kts
29-Apr-18 09:44 33.671519 -117.867198 26 60ft 0kts
29-Apr-18 09:45 33.671519 -117.867198 26 60ft 0kts
29-Apr-18 09:46 33.671519 -117.867198 26 60ft 0kts
29-Apr-18 09:47 33.671534 -117.867189 27 60ft 0kts
29-Apr-18 09:48 33.671670 -117.867283 305 60ft 4kts
29-Apr-18 09:49 33.673820 -117.867231 359 60ft 11kts
29-Apr-18 09:50 33.678035 -117.864581 26 60ft 15kts
29-Apr-18 09:51 33.680059 -117.863818 298 60ft 11kts
29-Apr-18 09:52 33.665564 -117.875913 235 491ft 94kts
29-Apr-18 09:53 33.649231 -117.905003 232 1305ft 120kts
29-Apr-18 09:54 33.627987 -117.939533 232 1985ft 143kts
29-Apr-18 09:55 33.640538 -117.971116 10 2516ft 142kts
29-Apr-18 09:56 33.678773 -117.964531 12 3306ft 137kts
29-Apr-18 09:57 33.716107 -117.958377 12 4098ft 134kts
29-Apr-18 09:58 33.752594 -117.952534 11 4887ft 132kts
29-Apr-18 09:59 33.788050 -117.946586 11 5613ft 138kts
29-Apr-18 10:00 33.813558 -117.930740 74 6008ft 153kts
29-Apr-18 10:01 33.827906 -117.879950 76 5997ft 177kts
29-Apr-18 10:02 33.842133 -117.825248 71 5997ft 175kts
29-Apr-18 10:03 33.854007 -117.789288 37 5976ft 163kts
29-Apr-18 10:04 33.878625 -117.784115 4 5995ft 162kts
29-Apr-18 10:05 33.910738 -117.783513 358 5997ft 163kts
29-Apr-18 10:06 33.936694 -117.783909 356 6432ft 145kts
29-Apr-18 10:07 33.960256 -117.784397 354 6896ft 137kts
29-Apr-18 10:08 33.988775 -117.785065 353 7001ft 156kts
29-Apr-18 10:09 34.012184 -117.803481 292 7361ft 139kts
29-Apr-18 10:10 34.022358 -117.834507 289 7945ft 129kts
29-Apr-18 10:11 34.033043 -117.866945 303 8588ft 126kts
29-Apr-18 10:12 34.052420 -117.890305 311 9219ft 125kts
29-Apr-18 10:13 34.074819 -117.915958 311 9931ft 123kts
29-Apr-18 10:14 34.099169 -117.943932 311 10716ft 121kts
29-Apr-18 10:15 34.122919 -117.971534 311 11511ft 119kts
29-Apr-18 10:16 34.147494 -118.000104 311 12015ft 135kts
29-Apr-18 10:17 34.176555 -118.034578 311 12015ft 152kts
29-Apr-18 10:18 34.207212 -118.071173 311 12017ft 156kts
29-Apr-18 10:19 34.238076 -118.108006 311 12025ft 156kts
29-Apr-18 10:20 34.268802 -118.144650 311 12018ft 156kts
29-Apr-18 10:21 34.268802 -118.144650 311 12018ft 156kts
29-Apr-18 10:22 34.268802 -118.144650 311 12018ft 156kts
29-Apr-18 10:24 34.268802 -118.144650 311 12018ft 156kts
29-Apr-18 10:25 34.268802 -118.144650 311 12018ft 156kts
29-Apr-18 10:26 34.268802 -118.144650 311 12018ft 156kts
29-Apr-18 10:26 34.268802 -118.144650 311 12018ft 156kts
29-Apr-18 10:27 34.268802 -118.144650 311 12018ft 156kts
29-Apr-18 10:28 34.268802 -118.144650 311 12018ft 156kts
29-Apr-18 10:29 34.268802 -118.144650 311 12018ft 156kts
29-Apr-18 10:30 34.277944 -118.155646 311 12015ft 157kts
29-Apr-18 10:31 34.308765 -118.192607 312 12011ft 157kts
29-Apr-18 10:32 34.345258 -118.214934 12 12021ft 180kts
29-Apr-18 10:34 34.399467 -118.186597 14 12007ft 183kts
29-Apr-18 10:34 34.437972 -118.166296 14 12034ft 181kts
29-Apr-18 10:35 34.479338 -118.144405 14 12032ft 182kts
29-Apr-18 10:36 34.525835 -118.119783 14 12028ft 183kts
29-Apr-18 10:37 34.571997 -118.095252 14 12026ft 183kts
29-Apr-18 10:38 34.618490 -118.070534 14 12026ft 183kts
29-Apr-18 10:39 34.666423 -118.060512 356 11162ft 173kts
29-Apr-18 10:40 34.713632 -118.056317 355 10162ft 170kts
29-Apr-18 10:41 34.760898 -118.052069 356 9160ft 172kts
29-Apr-18 10:42 34.808434 -118.047749 355 8157ft 172kts
29-Apr-18 10:43 34.856135 -118.043443 354 7151ft 173kts
29-Apr-18 10:44 34.904100 -118.039086 355 6148ft 173kts
29-Apr-18 10:45 34.952054 -118.034751 355 5156ft 172kts
29-Apr-18 10:46 34.999207 -118.030446 357 4994ft 171kts
29-Apr-18 10:47 35.046376 -118.022424 12 4900ft 182kts
29-Apr-18 10:48 35.090748 -117.991777 23 4211ft 174kts
29-Apr-18 10:49 35.128678 -117.974969 349 3490ft 108kts
29-Apr-18 10:50 35.154890 -117.983366 315 2828ft 75kts
29-Apr-18 10:51 35.153715 -118.005429 258 2465ft 72kts
29-Apr-18 10:52 35.150903 -118.016307 168 2427ft 15kts
29-Apr-18 10:53 35.150053 -118.015746 95 2426ft 0kts
29-Apr-18 10:54 35.150053 -118.015746 95 2426ft 0kts

Navigation Log

Ident Type
Flight plan parsing failed, navigation log unavailable